sensor_id;sensor_type;location;lat;lon;timestamp;P1;durP1;ratioP1;P2;durP2;ratioP2
75810;SDS011;64449;50.016;19.954;2024-01-16T00:02:10;5.50;;;2.20;;
75810;SDS011;64449;50.016;19.954;2024-01-16T00:04:38;5.10;;;1.90;;
75810;SDS011;64449;50.016;19.954;2024-01-16T00:07:05;5.60;;;2.50;;
75810;SDS011;64449;50.016;19.954;2024-01-16T00:09:34;5.10;;;2.00;;
75810;SDS011;64449;50.016;19.954;2024-01-16T00:12:00;5.20;;;2.20;;
75810;SDS011;64449;50.016;19.954;2024-01-16T00:14:26;5.50;;;2.60;;
75810;SDS011;64449;50.016;19.954;2024-01-16T00:16:53;4.60;;;2.40;;
75810;SDS011;64449;50.016;19.954;2024-01-16T00:19:18;4.90;;;2.30;;
75810;SDS011;64449;50.016;19.954;2024-01-16T00:21:44;5.10;;;2.40;;
75810;SDS011;64449;50.016;19.954;2024-01-16T00:24:15;4.80;;;2.70;;
75810;SDS011;64449;50.016;19.954;2024-01-16T00:26:41;4.20;;;2.40;;
75810;SDS011;64449;50.016;19.954;2024-01-16T00:31:34;4.30;;;1.80;;
75810;SDS011;64449;50.016;19.954;2024-01-16T00:33:59;6.20;;;2.20;;
75810;SDS011;64449;50.016;19.954;2024-01-16T00:36:25;5.10;;;2.70;;
75810;SDS011;64449;50.016;19.954;2024-01-16T00:38:50;6.10;;;3.00;;
75810;SDS011;64449;50.016;19.954;2024-01-16T00:41:16;5.40;;;2.40;;
75810;SDS011;64449;50.016;19.954;2024-01-16T00:46:08;5.30;;;2.40;;
75810;SDS011;64449;50.016;19.954;2024-01-16T00:48:33;5.10;;;2.40;;
75810;SDS011;64449;50.016;19.954;2024-01-16T00:50:59;7.30;;;2.70;;
75810;SDS011;64449;50.016;19.954;2024-01-16T00:53:26;7.20;;;3.40;;
75810;SDS011;64449;50.016;19.954;2024-01-16T00:55:52;7.00;;;2.60;;
75810;SDS011;64449;50.016;19.954;2024-01-16T00:58:19;5.30;;;2.50;;
75810;SDS011;64449;50.016;19.954;2024-01-16T01:00:46;5.70;;;2.90;;
75810;SDS011;64449;50.016;19.954;2024-01-16T01:03:12;5.60;;;2.20;;
75810;SDS011;64449;50.016;19.954;2024-01-16T01:05:37;4.40;;;2.40;;
75810;SDS011;64449;50.016;19.954;2024-01-16T01:08:03;5.40;;;2.50;;
75810;SDS011;64449;50.016;19.954;2024-01-16T01:10:29;5.50;;;2.80;;
75810;SDS011;64449;50.016;19.954;2024-01-16T01:12:54;6.40;;;2.80;;
75810;SDS011;64449;50.016;19.954;2024-01-16T01:17:47;3.90;;;2.00;;
75810;SDS011;64449;50.016;19.954;2024-01-16T01:20:14;8.40;;;3.40;;
75810;SDS011;64449;50.016;19.954;2024-01-16T01:22:40;7.50;;;3.30;;
75810;SDS011;64449;50.016;19.954;2024-01-16T01:27:31;6.20;;;2.90;;
75810;SDS011;64449;50.016;19.954;2024-01-16T01:29:57;6.20;;;2.70;;
75810;SDS011;64449;50.016;19.954;2024-01-16T01:32:23;5.10;;;3.00;;
75810;SDS011;64449;50.016;19.954;2024-01-16T01:37:14;4.20;;;2.30;;
75810;SDS011;64449;50.016;19.954;2024-01-16T01:39:39;5.80;;;2.70;;
75810;SDS011;64449;50.016;19.954;2024-01-16T01:42:05;4.70;;;2.80;;
75810;SDS011;64449;50.016;19.954;2024-01-16T01:44:30;5.00;;;2.60;;
75810;SDS011;64449;50.016;19.954;2024-01-16T01:46:56;5.70;;;2.80;;
75810;SDS011;64449;50.016;19.954;2024-01-16T01:49:22;7.70;;;3.60;;
75810;SDS011;64449;50.016;19.954;2024-01-16T01:51:48;4.70;;;2.80;;
75810;SDS011;64449;50.016;19.954;2024-01-16T01:54:14;8.40;;;3.40;;
75810;SDS011;64449;50.016;19.954;2024-01-16T01:56:44;8.30;;;3.80;;
75810;SDS011;64449;50.016;19.954;2024-01-16T01:59:11;6.10;;;3.00;;
75810;SDS011;64449;50.016;19.954;2024-01-16T02:01:38;6.40;;;3.60;;
75810;SDS011;64449;50.016;19.954;2024-01-16T02:04:05;7.20;;;3.70;;
75810;SDS011;64449;50.016;19.954;2024-01-16T02:06:31;6.40;;;3.10;;
75810;SDS011;64449;50.016;19.954;2024-01-16T02:08:57;9.20;;;3.50;;
75810;SDS011;64449;50.016;19.954;2024-01-16T02:11:24;5.20;;;3.00;;
75810;SDS011;64449;50.016;19.954;2024-01-16T02:13:50;7.70;;;4.70;;
75810;SDS011;64449;50.016;19.954;2024-01-16T02:16:19;8.80;;;4.10;;
75810;SDS011;64449;50.016;19.954;2024-01-16T02:18:46;8.50;;;3.90;;
75810;SDS011;64449;50.016;19.954;2024-01-16T02:21:11;8.00;;;4.00;;
75810;SDS011;64449;50.016;19.954;2024-01-16T02:23:40;6.50;;;3.60;;
75810;SDS011;64449;50.016;19.954;2024-01-16T02:26:06;11.10;;;3.50;;
75810;SDS011;64449;50.016;19.954;2024-01-16T02:28:32;6.10;;;3.70;;
75810;SDS011;64449;50.016;19.954;2024-01-16T02:30:57;8.40;;;4.40;;
75810;SDS011;64449;50.016;19.954;2024-01-16T02:33:22;6.90;;;3.70;;
75810;SDS011;64449;50.016;19.954;2024-01-16T02:38:13;7.40;;;3.30;;
75810;SDS011;64449;50.016;19.954;2024-01-16T02:40:39;3.90;;;2.00;;
75810;SDS011;64449;50.016;19.954;2024-01-16T02:43:05;6.10;;;2.90;;
75810;SDS011;64449;50.016;19.954;2024-01-16T02:45:32;6.20;;;2.80;;
75810;SDS011;64449;50.016;19.954;2024-01-16T02:47:57;5.40;;;2.80;;
75810;SDS011;64449;50.016;19.954;2024-01-16T02:50:23;6.40;;;3.20;;
75810;SDS011;64449;50.016;19.954;2024-01-16T02:52:48;7.10;;;3.50;;
75810;SDS011;64449;50.016;19.954;2024-01-16T02:55:13;5.90;;;2.80;;
75810;SDS011;64449;50.016;19.954;2024-01-16T02:57:39;8.00;;;3.20;;
75810;SDS011;64449;50.016;19.954;2024-01-16T03:00:05;7.70;;;3.00;;
75810;SDS011;64449;50.016;19.954;2024-01-16T03:02:32;7.30;;;2.80;;
75810;SDS011;64449;50.016;19.954;2024-01-16T03:07:24;4.00;;;2.20;;
75810;SDS011;64449;50.016;19.954;2024-01-16T03:09:49;5.30;;;2.20;;
75810;SDS011;64449;50.016;19.954;2024-01-16T03:14:40;4.40;;;2.10;;
75810;SDS011;64449;50.016;19.954;2024-01-16T03:17:05;5.80;;;2.50;;
75810;SDS011;64449;50.016;19.954;2024-01-16T03:19:32;5.10;;;2.50;;
75810;SDS011;64449;50.016;19.954;2024-01-16T03:21:57;5.20;;;2.50;;
75810;SDS011;64449;50.016;19.954;2024-01-16T03:24:23;4.10;;;1.80;;
75810;SDS011;64449;50.016;19.954;2024-01-16T03:26:49;4.00;;;2.50;;
75810;SDS011;64449;50.016;19.954;2024-01-16T03:29:14;5.00;;;2.40;;
75810;SDS011;64449;50.016;19.954;2024-01-16T03:31:40;5.30;;;2.50;;
75810;SDS011;64449;50.016;19.954;2024-01-16T03:34:05;5.40;;;2.90;;
75810;SDS011;64449;50.016;19.954;2024-01-16T03:36:33;4.30;;;2.10;;
75810;SDS011;64449;50.016;19.954;2024-01-16T03:38:59;4.10;;;2.20;;
75810;SDS011;64449;50.016;19.954;2024-01-16T03:41:24;5.90;;;2.40;;
75810;SDS011;64449;50.016;19.954;2024-01-16T03:43:49;5.20;;;2.20;;
75810;SDS011;64449;50.016;19.954;2024-01-16T03:46:15;3.70;;;2.10;;
75810;SDS011;64449;50.016;19.954;2024-01-16T03:48:40;5.00;;;2.70;;
75810;SDS011;64449;50.016;19.954;2024-01-16T03:51:05;6.00;;;2.20;;
75810;SDS011;64449;50.016;19.954;2024-01-16T03:53:31;5.40;;;2.00;;
75810;SDS011;64449;50.016;19.954;2024-01-16T03:55:57;3.30;;;1.70;;
75810;SDS011;64449;50.016;19.954;2024-01-16T03:58:23;5.20;;;1.90;;
75810;SDS011;64449;50.016;19.954;2024-01-16T04:00:48;3.10;;;1.50;;
75810;SDS011;64449;50.016;19.954;2024-01-16T04:03:16;6.10;;;3.10;;
75810;SDS011;64449;50.016;19.954;2024-01-16T04:05:42;4.80;;;2.20;;
75810;SDS011;64449;50.016;19.954;2024-01-16T04:10:32;4.10;;;1.30;;
75810;SDS011;64449;50.016;19.954;2024-01-16T04:13:00;2.90;;;1.60;;
75810;SDS011;64449;50.016;19.954;2024-01-16T04:15:26;5.70;;;2.70;;
75810;SDS011;64449;50.016;19.954;2024-01-16T04:17:52;6.80;;;2.40;;
75810;SDS011;64449;50.016;19.954;2024-01-16T04:20:17;4.30;;;1.80;;
75810;SDS011;64449;50.016;19.954;2024-01-16T04:22:42;7.10;;;2.50;;
75810;SDS011;64449;50.016;19.954;2024-01-16T04:25:08;4.50;;;2.30;;
75810;SDS011;64449;50.016;19.954;2024-01-16T04:27:34;4.50;;;2.30;;
75810;SDS011;64449;50.016;19.954;2024-01-16T04:30:00;5.40;;;2.30;;
75810;SDS011;64449;50.016;19.954;2024-01-16T04:32:25;4.40;;;2.20;;
75810;SDS011;64449;50.016;19.954;2024-01-16T04:34:51;5.30;;;2.40;;
75810;SDS011;64449;50.016;19.954;2024-01-16T04:37:16;4.60;;;2.30;;
75810;SDS011;64449;50.016;19.954;2024-01-16T04:39:41;4.80;;;1.90;;
75810;SDS011;64449;50.016;19.954;2024-01-16T04:42:07;5.40;;;2.70;;
75810;SDS011;64449;50.016;19.954;2024-01-16T04:44:32;5.40;;;2.30;;
75810;SDS011;64449;50.016;19.954;2024-01-16T04:46:57;3.80;;;2.00;;
75810;SDS011;64449;50.016;19.954;2024-01-16T04:49:23;6.10;;;2.50;;
75810;SDS011;64449;50.016;19.954;2024-01-16T04:51:49;3.60;;;2.10;;
75810;SDS011;64449;50.016;19.954;2024-01-16T04:54:14;4.50;;;2.30;;
75810;SDS011;64449;50.016;19.954;2024-01-16T04:56:40;3.60;;;2.00;;
75810;SDS011;64449;50.016;19.954;2024-01-16T04:59:05;6.90;;;3.20;;
75810;SDS011;64449;50.016;19.954;2024-01-16T05:01:30;4.40;;;1.90;;
75810;SDS011;64449;50.016;19.954;2024-01-16T05:03:56;7.50;;;2.40;;
75810;SDS011;64449;50.016;19.954;2024-01-16T05:06:21;3.30;;;2.10;;
75810;SDS011;64449;50.016;19.954;2024-01-16T05:11:12;4.70;;;2.40;;
75810;SDS011;64449;50.016;19.954;2024-01-16T05:13:37;7.10;;;3.00;;
75810;SDS011;64449;50.016;19.954;2024-01-16T05:16:03;5.20;;;2.70;;
75810;SDS011;64449;50.016;19.954;2024-01-16T05:18:28;6.60;;;2.20;;
75810;SDS011;64449;50.016;19.954;2024-01-16T05:20:54;6.40;;;3.00;;
75810;SDS011;64449;50.016;19.954;2024-01-16T05:23:21;6.30;;;2.70;;
75810;SDS011;64449;50.016;19.954;2024-01-16T05:25:47;4.50;;;2.40;;
75810;SDS011;64449;50.016;19.954;2024-01-16T05:28:12;6.60;;;2.20;;
75810;SDS011;64449;50.016;19.954;2024-01-16T05:30:38;3.80;;;2.30;;
75810;SDS011;64449;50.016;19.954;2024-01-16T05:33:03;6.60;;;3.50;;
75810;SDS011;64449;50.016;19.954;2024-01-16T05:37:55;4.50;;;1.80;;
75810;SDS011;64449;50.016;19.954;2024-01-16T05:40:21;6.30;;;2.80;;
75810;SDS011;64449;50.016;19.954;2024-01-16T05:42:50;5.70;;;2.30;;
75810;SDS011;64449;50.016;19.954;2024-01-16T05:45:16;5.80;;;2.70;;
75810;SDS011;64449;50.016;19.954;2024-01-16T05:47:42;4.40;;;2.60;;
75810;SDS011;64449;50.016;19.954;2024-01-16T05:50:08;6.10;;;2.30;;
75810;SDS011;64449;50.016;19.954;2024-01-16T05:52:34;3.80;;;2.20;;
75810;SDS011;64449;50.016;19.954;2024-01-16T05:54:59;5.00;;;2.40;;
75810;SDS011;64449;50.016;19.954;2024-01-16T05:57:25;7.40;;;2.60;;
75810;SDS011;64449;50.016;19.954;2024-01-16T05:59:51;5.60;;;2.70;;
75810;SDS011;64449;50.016;19.954;2024-01-16T06:02:17;6.40;;;2.60;;
75810;SDS011;64449;50.016;19.954;2024-01-16T06:04:42;5.40;;;2.80;;
75810;SDS011;64449;50.016;19.954;2024-01-16T06:07:08;7.70;;;2.50;;
75810;SDS011;64449;50.016;19.954;2024-01-16T06:09:33;3.10;;;1.80;;
75810;SDS011;64449;50.016;19.954;2024-01-16T06:12:05;5.70;;;2.80;;
75810;SDS011;64449;50.016;19.954;2024-01-16T06:14:32;4.00;;;2.40;;
75810;SDS011;64449;50.016;19.954;2024-01-16T06:16:58;5.70;;;2.40;;
75810;SDS011;64449;50.016;19.954;2024-01-16T06:19:23;7.30;;;2.90;;
75810;SDS011;64449;50.016;19.954;2024-01-16T06:21:49;5.70;;;2.90;;
75810;SDS011;64449;50.016;19.954;2024-01-16T06:24:14;6.20;;;2.90;;
75810;SDS011;64449;50.016;19.954;2024-01-16T06:26:40;6.00;;;2.70;;
75810;SDS011;64449;50.016;19.954;2024-01-16T06:29:05;4.90;;;3.00;;
75810;SDS011;64449;50.016;19.954;2024-01-16T06:31:31;4.40;;;2.10;;
75810;SDS011;64449;50.016;19.954;2024-01-16T06:33:56;6.60;;;3.30;;
75810;SDS011;64449;50.016;19.954;2024-01-16T06:38:47;4.50;;;2.20;;
75810;SDS011;64449;50.016;19.954;2024-01-16T06:41:12;4.80;;;2.40;;
75810;SDS011;64449;50.016;19.954;2024-01-16T06:43:38;5.00;;;2.00;;
75810;SDS011;64449;50.016;19.954;2024-01-16T06:46:04;6.30;;;3.20;;
75810;SDS011;64449;50.016;19.954;2024-01-16T06:48:30;7.20;;;3.10;;
75810;SDS011;64449;50.016;19.954;2024-01-16T06:50:56;5.40;;;3.30;;
75810;SDS011;64449;50.016;19.954;2024-01-16T06:53:21;4.50;;;2.00;;
75810;SDS011;64449;50.016;19.954;2024-01-16T06:55:47;5.30;;;2.70;;
75810;SDS011;64449;50.016;19.954;2024-01-16T06:58:14;5.90;;;2.90;;
75810;SDS011;64449;50.016;19.954;2024-01-16T07:00:39;5.70;;;2.70;;
75810;SDS011;64449;50.016;19.954;2024-01-16T07:03:06;6.60;;;3.50;;
75810;SDS011;64449;50.016;19.954;2024-01-16T07:05:32;6.10;;;2.60;;
75810;SDS011;64449;50.016;19.954;2024-01-16T07:07:57;6.20;;;2.80;;
75810;SDS011;64449;50.016;19.954;2024-01-16T07:10:23;6.70;;;3.10;;
75810;SDS011;64449;50.016;19.954;2024-01-16T07:12:49;8.20;;;4.20;;
75810;SDS011;64449;50.016;19.954;2024-01-16T07:15:16;5.60;;;2.90;;
75810;SDS011;64449;50.016;19.954;2024-01-16T07:17:42;5.10;;;2.30;;
75810;SDS011;64449;50.016;19.954;2024-01-16T07:20:07;6.90;;;3.30;;
75810;SDS011;64449;50.016;19.954;2024-01-16T07:22:33;4.20;;;2.60;;
75810;SDS011;64449;50.016;19.954;2024-01-16T07:27:24;4.80;;;2.40;;
75810;SDS011;64449;50.016;19.954;2024-01-16T07:29:50;4.30;;;2.50;;
75810;SDS011;64449;50.016;19.954;2024-01-16T07:32:15;6.10;;;3.00;;
75810;SDS011;64449;50.016;19.954;2024-01-16T07:37:06;5.10;;;2.80;;
75810;SDS011;64449;50.016;19.954;2024-01-16T07:39:32;6.60;;;3.30;;
75810;SDS011;64449;50.016;19.954;2024-01-16T07:41:57;6.50;;;3.40;;
75810;SDS011;64449;50.016;19.954;2024-01-16T07:44:23;7.60;;;4.10;;
75810;SDS011;64449;50.016;19.954;2024-01-16T07:46:48;7.40;;;3.20;;
75810;SDS011;64449;50.016;19.954;2024-01-16T07:49:15;6.80;;;2.90;;
75810;SDS011;64449;50.016;19.954;2024-01-16T07:51:41;10.90;;;3.60;;
75810;SDS011;64449;50.016;19.954;2024-01-16T07:54:07;7.80;;;3.40;;
75810;SDS011;64449;50.016;19.954;2024-01-16T07:56:34;8.40;;;3.80;;
75810;SDS011;64449;50.016;19.954;2024-01-16T07:59:00;6.40;;;2.80;;
75810;SDS011;64449;50.016;19.954;2024-01-16T08:01:26;7.70;;;4.00;;
75810;SDS011;64449;50.016;19.954;2024-01-16T08:03:53;10.10;;;5.20;;
75810;SDS011;64449;50.016;19.954;2024-01-16T08:06:19;7.50;;;3.00;;
75810;SDS011;64449;50.016;19.954;2024-01-16T08:08:45;15.70;;;4.00;;
75810;SDS011;64449;50.016;19.954;2024-01-16T08:11:11;9.70;;;4.10;;
75810;SDS011;64449;50.016;19.954;2024-01-16T08:13:37;7.90;;;3.80;;
75810;SDS011;64449;50.016;19.954;2024-01-16T08:16:02;5.70;;;3.20;;
75810;SDS011;64449;50.016;19.954;2024-01-16T08:18:28;9.40;;;4.20;;
75810;SDS011;64449;50.016;19.954;2024-01-16T08:20:53;6.40;;;3.40;;
75810;SDS011;64449;50.016;19.954;2024-01-16T08:23:19;6.20;;;2.60;;
75810;SDS011;64449;50.016;19.954;2024-01-16T08:25:46;6.10;;;2.80;;
75810;SDS011;64449;50.016;19.954;2024-01-16T08:28:11;10.20;;;3.80;;
75810;SDS011;64449;50.016;19.954;2024-01-16T08:30:37;6.40;;;3.60;;
75810;SDS011;64449;50.016;19.954;2024-01-16T08:33:02;6.10;;;3.10;;
75810;SDS011;64449;50.016;19.954;2024-01-16T08:35:28;6.00;;;2.70;;
75810;SDS011;64449;50.016;19.954;2024-01-16T08:37:53;6.20;;;2.80;;
75810;SDS011;64449;50.016;19.954;2024-01-16T08:40:19;6.50;;;2.90;;
75810;SDS011;64449;50.016;19.954;2024-01-16T08:42:44;7.60;;;2.80;;
75810;SDS011;64449;50.016;19.954;2024-01-16T08:45:10;5.20;;;2.30;;
75810;SDS011;64449;50.016;19.954;2024-01-16T08:47:35;6.30;;;3.20;;
75810;SDS011;64449;50.016;19.954;2024-01-16T08:50:00;7.50;;;3.10;;
75810;SDS011;64449;50.016;19.954;2024-01-16T08:52:27;7.60;;;2.90;;
75810;SDS011;64449;50.016;19.954;2024-01-16T08:54:52;6.00;;;3.20;;
75810;SDS011;64449;50.016;19.954;2024-01-16T08:57:18;7.90;;;3.00;;
75810;SDS011;64449;50.016;19.954;2024-01-16T08:59:43;10.10;;;3.20;;
75810;SDS011;64449;50.016;19.954;2024-01-16T09:02:09;6.00;;;2.40;;
75810;SDS011;64449;50.016;19.954;2024-01-16T09:04:34;4.80;;;2.20;;
75810;SDS011;64449;50.016;19.954;2024-01-16T09:07:00;6.50;;;2.40;;
75810;SDS011;64449;50.016;19.954;2024-01-16T09:09:26;5.70;;;2.50;;
75810;SDS011;64449;50.016;19.954;2024-01-16T09:11:51;7.40;;;2.90;;
75810;SDS011;64449;50.016;19.954;2024-01-16T09:14:16;5.90;;;2.20;;
75810;SDS011;64449;50.016;19.954;2024-01-16T09:16:42;5.30;;;2.20;;
75810;SDS011;64449;50.016;19.954;2024-01-16T09:19:07;6.60;;;2.40;;
75810;SDS011;64449;50.016;19.954;2024-01-16T09:21:34;6.20;;;2.70;;
75810;SDS011;64449;50.016;19.954;2024-01-16T09:24:00;6.80;;;2.60;;
75810;SDS011;64449;50.016;19.954;2024-01-16T09:28:51;6.60;;;2.20;;
75810;SDS011;64449;50.016;19.954;2024-01-16T09:31:16;9.10;;;3.10;;
75810;SDS011;64449;50.016;19.954;2024-01-16T09:33:41;6.50;;;2.80;;
75810;SDS011;64449;50.016;19.954;2024-01-16T09:36:08;4.40;;;2.20;;
75810;SDS011;64449;50.016;19.954;2024-01-16T09:38:34;5.40;;;2.20;;
75810;SDS011;64449;50.016;19.954;2024-01-16T09:41:00;6.10;;;2.30;;
75810;SDS011;64449;50.016;19.954;2024-01-16T09:43:26;6.60;;;3.10;;
75810;SDS011;64449;50.016;19.954;2024-01-16T09:45:52;4.70;;;2.30;;
75810;SDS011;64449;50.016;19.954;2024-01-16T09:48:19;4.10;;;2.40;;
75810;SDS011;64449;50.016;19.954;2024-01-16T09:50:45;6.10;;;2.30;;
75810;SDS011;64449;50.016;19.954;2024-01-16T09:55:36;3.40;;;1.80;;
75810;SDS011;64449;50.016;19.954;2024-01-16T09:58:03;4.20;;;2.00;;
75810;SDS011;64449;50.016;19.954;2024-01-16T10:00:34;4.90;;;1.70;;
75810;SDS011;64449;50.016;19.954;2024-01-16T10:03:00;4.60;;;2.00;;
75810;SDS011;64449;50.016;19.954;2024-01-16T10:05:26;3.80;;;1.70;;
75810;SDS011;64449;50.016;19.954;2024-01-16T10:07:52;5.60;;;1.80;;
75810;SDS011;64449;50.016;19.954;2024-01-16T10:10:17;3.80;;;2.00;;
75810;SDS011;64449;50.016;19.954;2024-01-16T10:12:44;4.90;;;1.80;;
75810;SDS011;64449;50.016;19.954;2024-01-16T10:15:11;4.50;;;1.80;;
75810;SDS011;64449;50.016;19.954;2024-01-16T10:17:41;3.30;;;1.30;;
75810;SDS011;64449;50.016;19.954;2024-01-16T10:20:11;3.70;;;1.60;;
75810;SDS011;64449;50.016;19.954;2024-01-16T10:22:51;3.80;;;1.60;;
75810;SDS011;64449;50.016;19.954;2024-01-16T10:25:18;4.90;;;2.30;;
75810;SDS011;64449;50.016;19.954;2024-01-16T10:27:45;3.60;;;2.00;;
75810;SDS011;64449;50.016;19.954;2024-01-16T10:30:11;6.10;;;2.10;;
75810;SDS011;64449;50.016;19.954;2024-01-16T10:32:37;7.00;;;1.90;;
75810;SDS011;64449;50.016;19.954;2024-01-16T10:35:08;5.10;;;1.50;;
75810;SDS011;64449;50.016;19.954;2024-01-16T10:37:46;6.00;;;2.40;;
75810;SDS011;64449;50.016;19.954;2024-01-16T10:40:19;5.10;;;1.60;;
75810;SDS011;64449;50.016;19.954;2024-01-16T10:42:46;3.70;;;1.60;;
75810;SDS011;64449;50.016;19.954;2024-01-16T10:45:25;4.10;;;1.80;;
75810;SDS011;64449;50.016;19.954;2024-01-16T10:48:03;6.30;;;2.20;;
75810;SDS011;64449;50.016;19.954;2024-01-16T10:50:31;6.90;;;2.00;;
75810;SDS011;64449;50.016;19.954;2024-01-16T10:52:59;8.00;;;2.20;;
75810;SDS011;64449;50.016;19.954;2024-01-16T10:55:27;4.10;;;1.90;;
75810;SDS011;64449;50.016;19.954;2024-01-16T10:57:55;7.80;;;2.20;;
75810;SDS011;64449;50.016;19.954;2024-01-16T11:00:22;4.30;;;2.30;;
75810;SDS011;64449;50.016;19.954;2024-01-16T11:02:59;3.60;;;1.70;;
75810;SDS011;64449;50.016;19.954;2024-01-16T11:05:31;4.60;;;2.20;;
75810;SDS011;64449;50.016;19.954;2024-01-16T11:08:00;5.50;;;2.30;;
75810;SDS011;64449;50.016;19.954;2024-01-16T11:10:27;5.40;;;2.30;;
75810;SDS011;64449;50.016;19.954;2024-01-16T11:12:54;4.80;;;2.40;;
75810;SDS011;64449;50.016;19.954;2024-01-16T11:15:21;7.10;;;2.60;;
75810;SDS011;64449;50.016;19.954;2024-01-16T11:17:46;4.40;;;1.70;;
75810;SDS011;64449;50.016;19.954;2024-01-16T11:20:15;3.70;;;1.70;;
75810;SDS011;64449;50.016;19.954;2024-01-16T11:22:42;3.40;;;1.70;;
75810;SDS011;64449;50.016;19.954;2024-01-16T11:25:15;4.00;;;1.60;;
75810;SDS011;64449;50.016;19.954;2024-01-16T11:27:43;3.60;;;1.70;;
75810;SDS011;64449;50.016;19.954;2024-01-16T11:30:13;2.60;;;1.40;;
75810;SDS011;64449;50.016;19.954;2024-01-16T11:32:55;3.40;;;1.70;;
75810;SDS011;64449;50.016;19.954;2024-01-16T11:35:31;4.00;;;1.90;;
75810;SDS011;64449;50.016;19.954;2024-01-16T11:38:15;3.10;;;1.70;;
75810;SDS011;64449;50.016;19.954;2024-01-16T11:40:42;4.10;;;1.40;;
75810;SDS011;64449;50.016;19.954;2024-01-16T11:46:06;3.30;;;1.90;;
75810;SDS011;64449;50.016;19.954;2024-01-16T11:48:32;3.50;;;1.00;;
75810;SDS011;64449;50.016;19.954;2024-01-16T11:50:58;9.70;;;3.20;;
75810;SDS011;64449;50.016;19.954;2024-01-16T11:53:31;3.30;;;1.50;;
75810;SDS011;64449;50.016;19.954;2024-01-16T11:58:48;2.80;;;1.20;;
75810;SDS011;64449;50.016;19.954;2024-01-16T12:01:41;2.40;;;1.40;;
75810;SDS011;64449;50.016;19.954;2024-01-16T12:04:10;2.70;;;1.30;;
75810;SDS011;64449;50.016;19.954;2024-01-16T12:06:35;5.20;;;2.00;;
75810;SDS011;64449;50.016;19.954;2024-01-16T12:09:12;5.80;;;2.10;;
75810;SDS011;64449;50.016;19.954;2024-01-16T12:11:41;4.30;;;1.70;;
75810;SDS011;64449;50.016;19.954;2024-01-16T12:16:38;8.90;;;2.70;;
75810;SDS011;64449;50.016;19.954;2024-01-16T12:21:39;7.60;;;2.40;;
75810;SDS011;64449;50.016;19.954;2024-01-16T12:24:07;6.70;;;2.60;;
75810;SDS011;64449;50.016;19.954;2024-01-16T12:26:32;4.80;;;2.10;;
75810;SDS011;64449;50.016;19.954;2024-01-16T12:28:58;5.00;;;2.00;;
75810;SDS011;64449;50.016;19.954;2024-01-16T12:31:24;6.70;;;2.30;;
75810;SDS011;64449;50.016;19.954;2024-01-16T12:33:51;4.70;;;2.00;;
75810;SDS011;64449;50.016;19.954;2024-01-16T12:36:17;5.40;;;2.50;;
75810;SDS011;64449;50.016;19.954;2024-01-16T12:38:42;4.00;;;2.30;;
75810;SDS011;64449;50.016;19.954;2024-01-16T12:41:08;4.80;;;2.00;;
75810;SDS011;64449;50.016;19.954;2024-01-16T12:43:35;5.00;;;2.40;;
75810;SDS011;64449;50.016;19.954;2024-01-16T12:46:04;4.90;;;2.00;;
75810;SDS011;64449;50.016;19.954;2024-01-16T12:48:31;6.20;;;2.40;;
75810;SDS011;64449;50.016;19.954;2024-01-16T12:51:00;4.10;;;2.00;;
75810;SDS011;64449;50.016;19.954;2024-01-16T12:53:27;3.70;;;1.70;;
75810;SDS011;64449;50.016;19.954;2024-01-16T12:55:59;5.90;;;2.20;;
75810;SDS011;64449;50.016;19.954;2024-01-16T12:58:33;4.10;;;1.80;;
75810;SDS011;64449;50.016;19.954;2024-01-16T13:03:49;4.20;;;1.90;;
75810;SDS011;64449;50.016;19.954;2024-01-16T13:06:18;3.30;;;1.30;;
75810;SDS011;64449;50.016;19.954;2024-01-16T13:08:48;3.80;;;1.40;;
75810;SDS011;64449;50.016;19.954;2024-01-16T13:11:15;2.60;;;1.40;;
75810;SDS011;64449;50.016;19.954;2024-01-16T13:13:44;4.10;;;1.40;;
75810;SDS011;64449;50.016;19.954;2024-01-16T13:16:10;4.80;;;1.60;;
75810;SDS011;64449;50.016;19.954;2024-01-16T13:18:36;4.00;;;1.20;;
75810;SDS011;64449;50.016;19.954;2024-01-16T13:21:02;3.70;;;1.70;;
75810;SDS011;64449;50.016;19.954;2024-01-16T13:23:28;4.00;;;1.50;;
75810;SDS011;64449;50.016;19.954;2024-01-16T13:25:54;3.70;;;1.60;;
75810;SDS011;64449;50.016;19.954;2024-01-16T13:28:20;3.10;;;1.70;;
75810;SDS011;64449;50.016;19.954;2024-01-16T13:30:46;3.40;;;1.50;;
75810;SDS011;64449;50.016;19.954;2024-01-16T13:33:13;4.10;;;2.00;;
75810;SDS011;64449;50.016;19.954;2024-01-16T13:35:41;7.00;;;2.00;;
75810;SDS011;64449;50.016;19.954;2024-01-16T13:38:08;4.40;;;1.50;;
75810;SDS011;64449;50.016;19.954;2024-01-16T13:40:35;6.60;;;1.70;;
75810;SDS011;64449;50.016;19.954;2024-01-16T13:43:04;3.30;;;1.80;;
75810;SDS011;64449;50.016;19.954;2024-01-16T13:45:33;4.40;;;1.70;;
75810;SDS011;64449;50.016;19.954;2024-01-16T13:48:03;4.70;;;2.00;;
75810;SDS011;64449;50.016;19.954;2024-01-16T13:50:30;3.40;;;1.50;;
75810;SDS011;64449;50.016;19.954;2024-01-16T13:52:57;4.60;;;2.00;;
75810;SDS011;64449;50.016;19.954;2024-01-16T13:55:22;5.30;;;2.20;;
75810;SDS011;64449;50.016;19.954;2024-01-16T13:57:48;4.00;;;1.90;;
75810;SDS011;64449;50.016;19.954;2024-01-16T14:02:41;5.50;;;2.10;;
75810;SDS011;64449;50.016;19.954;2024-01-16T14:05:11;4.10;;;1.60;;
75810;SDS011;64449;50.016;19.954;2024-01-16T14:07:40;2.50;;;1.50;;
75810;SDS011;64449;50.016;19.954;2024-01-16T14:10:09;5.60;;;2.20;;
75810;SDS011;64449;50.016;19.954;2024-01-16T14:12:37;6.10;;;2.10;;
75810;SDS011;64449;50.016;19.954;2024-01-16T14:15:15;4.50;;;2.10;;
75810;SDS011;64449;50.016;19.954;2024-01-16T14:17:44;5.00;;;1.80;;
75810;SDS011;64449;50.016;19.954;2024-01-16T14:20:17;6.00;;;2.70;;
75810;SDS011;64449;50.016;19.954;2024-01-16T14:22:47;5.20;;;2.40;;
75810;SDS011;64449;50.016;19.954;2024-01-16T14:25:12;5.20;;;2.70;;
75810;SDS011;64449;50.016;19.954;2024-01-16T14:30:12;8.40;;;3.10;;
75810;SDS011;64449;50.016;19.954;2024-01-16T14:32:42;5.60;;;3.00;;
75810;SDS011;64449;50.016;19.954;2024-01-16T14:35:09;8.20;;;4.30;;
75810;SDS011;64449;50.016;19.954;2024-01-16T14:37:36;8.80;;;4.50;;
75810;SDS011;64449;50.016;19.954;2024-01-16T14:40:03;9.60;;;4.20;;
75810;SDS011;64449;50.016;19.954;2024-01-16T14:42:37;7.10;;;3.30;;
75810;SDS011;64449;50.016;19.954;2024-01-16T14:45:04;9.30;;;4.00;;
75810;SDS011;64449;50.016;19.954;2024-01-16T14:47:31;6.90;;;3.00;;
75810;SDS011;64449;50.016;19.954;2024-01-16T14:52:23;5.50;;;2.30;;
75810;SDS011;64449;50.016;19.954;2024-01-16T14:54:48;5.30;;;2.60;;
75810;SDS011;64449;50.016;19.954;2024-01-16T14:57:15;6.10;;;2.30;;
75810;SDS011;64449;50.016;19.954;2024-01-16T14:59:41;6.40;;;2.60;;
75810;SDS011;64449;50.016;19.954;2024-01-16T15:02:07;6.70;;;3.70;;
75810;SDS011;64449;50.016;19.954;2024-01-16T15:04:42;4.70;;;2.20;;
75810;SDS011;64449;50.016;19.954;2024-01-16T15:07:11;8.40;;;3.20;;
75810;SDS011;64449;50.016;19.954;2024-01-16T15:09:36;8.10;;;2.40;;
75810;SDS011;64449;50.016;19.954;2024-01-16T15:12:06;3.90;;;2.50;;
75810;SDS011;64449;50.016;19.954;2024-01-16T15:14:35;4.50;;;2.20;;
75810;SDS011;64449;50.016;19.954;2024-01-16T15:17:01;8.10;;;3.10;;
75810;SDS011;64449;50.016;19.954;2024-01-16T15:19:27;8.30;;;2.80;;
75810;SDS011;64449;50.016;19.954;2024-01-16T15:21:53;9.20;;;3.00;;
75810;SDS011;64449;50.016;19.954;2024-01-16T15:24:19;8.80;;;3.90;;
75810;SDS011;64449;50.016;19.954;2024-01-16T15:26:51;9.70;;;4.20;;
75810;SDS011;64449;50.016;19.954;2024-01-16T15:29:18;9.30;;;4.60;;
75810;SDS011;64449;50.016;19.954;2024-01-16T15:31:43;7.30;;;3.10;;